• Join FlightAware (Why Join?)
  • Login
  • US Flag 
07:57AM EDT


 

Airport Tracker/Info


-or-


 

Live Flight TrackerFlight Track Log ✈ JBU917 ✈ 06-Jul-2013 ✈ KBOS - KJFK

Flight Track Log - Related Links

Times and Time Zones

All times are in EDT time to prevent confusion due to time zone crossing. See the JBU917 flight status page for this flight to view local times or setup timezone preferences in your user account.

Time Position Orientation Groundspeed Altitude Reporting Facility
EDT Latitude Longitude Course Direction KTS MPH feet Rate Location/Type
05:58AM 42.3500 -70.9833 160° South 169 194 900  Level KA90
05:58AM 42.3333 -70.9500 124° Southeast 197 227 1,900 2,160 Climbing KA90
05:59AM 42.3244 -70.8422 96° East 237 273 5,000 2,760 Climbing Boston Center
06:00AM 42.4004 -70.7337 144° Southeast  Level FlightAware Approximate
06:00AM 42.3211 -70.7525 93° East 258 297 8,000  Level Boston Center
06:01AM 42.3153 -70.6961 164° South  Level FlightAware Approximate
06:01AM 42.2656 -70.6669 131° Southeast 275 316 11,100  Level Boston Center
06:02AM 42.2316 -70.6491 160° South  Level FlightAware Approximate
06:02AM 42.1567 -70.6253 164° South 316 364 13,800  Level Boston Center
06:03AM 42.1459 -70.6062 160° South  Level FlightAware Approximate
06:03AM 42.0633 -70.6531 192° South 313 360 16,400  Level Boston Center
06:04AM 41.9658 -70.6950 198° South 332 382 18,800 2,340 Climbing Boston Center
06:05AM 41.8686 -70.7339 197° South 359 413 21,100 1,560 Climbing Boston Center
06:06AM 41.7778 -70.7864 203° Southwest 373 429 22,000 420 Climbing Boston Center
06:07AM 41.6767 -70.8725 212° Southwest 380 437 22,000  Level Boston Center
06:08AM 41.5861 -70.9414 210° Southwest 386 444 22,000  Level Boston Center
06:09AM 41.5100 -71.0319 222° Southwest 381 438 22,000  Level Boston Center
06:10AM 41.4447 -71.1358 230° Southwest 368 423 22,000  Level Boston Center
06:11AM 41.3792 -71.2422 231° Southwest 374 430 22,000  Level Boston Center
06:12AM 41.3156 -71.3511 232° Southwest 374 430 22,000  Level Boston Center
06:13AM 41.2497 -71.4544 230° Southwest 374 430 22,000  Level Boston Center
06:14AM 41.1842 -71.5631 231° Southwest 380 437 22,000  Level Boston Center
06:15AM 41.1536 -71.6656 248° West 354 407 22,000  Level Boston Center
06:16AM 41.1378 -71.7978 261° West 354 407 22,000  Level Boston Center
06:17AM 41.1236 -71.9028 260° West 359 413 22,000  Level Boston Center
06:18AM 41.1036 -72.0819 262° West 366 421 22,000 -540 Level Boston Center
06:19AM 41.0789 -72.2061 255° West 368 423 21,000 -1,500 Descending Boston Center
06:20AM 41.0478 -72.3328 252° West 363 418 19,100 -1,740 Descending Boston Center
06:21AM 41.0208 -72.4347 251° West 346 398 17,600 -1,980 Descending Boston Center
06:22AM 40.9917 -72.5500 252° West 341 392 15,200 -2,460 Descending Boston Center
06:23AM 40.9600 -72.6764 252° West 341 392 12,700 -1,920 Descending Boston Center
06:24AM 40.9500 -72.7500 260° West 292 336 12,000 -480 Descending New York TRACON
06:25AM 40.9000 -72.8167 225° Southwest 275 316 12,000  Level New York TRACON
06:26AM 40.8500 -72.9000 232° Southwest 278 320 12,000  Level New York TRACON
06:27AM 40.7833 -72.9667 217° Southwest 278 320 12,000 -1,020 Level New York TRACON
06:28AM 40.7167 -73.0500 223° Southwest 276 318 9,800 -1,800 Descending New York TRACON
06:29AM 40.6667 -73.1167 225° Southwest 271 312 8,100 -1,800 Descending New York TRACON
06:30AM 40.6000 -73.1833 217° Southwest 271 312 6,100 -1,560 Descending New York TRACON
06:31AM 40.5833 -73.2500 252° West 261 300 5,000 -600 Descending New York TRACON
06:32AM 40.5667 -73.3500 258° West 255 293 5,000 -360 Level New York TRACON
06:33AM 40.5667 -73.4333 270° West 242 278 4,300 -840 Descending New York TRACON
06:34AM 40.5667 -73.5333 270° West 216 249 3,400 -720 Descending New York TRACON
06:35AM 40.5833 -73.5833 294° West 175 201 2,800 -780 Descending New York TRACON
06:36AM 40.6000 -73.6500 288° West 163 188 1,900 -840 Descending New York TRACON
06:37AM 40.6167 -73.6833 303° West 137 158 1,300 -660 Descending New York TRACON
06:38AM 40.6333 -73.7167 303° West 114 131 700 -600 Descending New York TRACON
06:40AM 40.6333 -73.7667 North  Level FlightAware Approximate